createdAt,value
2017-11-30T00:00:05.593Z,1.27
2017-11-30T00:01:11.606Z,1.29
2017-11-30T00:02:17.665Z,1.29
2017-11-30T00:03:23.767Z,1.30
2017-11-30T00:04:29.803Z,1.32
2017-11-30T00:05:35.939Z,1.27
2017-11-30T00:06:42.510Z,1.28
2017-11-30T00:07:47.990Z,1.28
2017-11-30T00:08:54.073Z,1.29
2017-11-30T00:10:00.124Z,1.29
2017-11-30T00:11:06.271Z,1.28
2017-11-30T00:12:12.240Z,1.27
2017-11-30T00:13:18.323Z,1.30
2017-11-30T00:14:24.433Z,1.30
2017-11-30T00:15:30.444Z,1.29
2017-11-30T00:16:36.493Z,1.30
2017-11-30T00:17:42.584Z,1.30
2017-11-30T00:18:48.635Z,1.29
2017-11-30T00:19:54.785Z,1.32
2017-11-30T00:21:00.738Z,1.32
2017-11-30T00:22:06.810Z,1.34
2017-11-30T00:23:12.896Z,1.34
2017-11-30T00:24:18.923Z,1.36
2017-11-30T00:25:25.027Z,1.36
2017-11-30T00:26:31.061Z,1.39
2017-11-30T00:27:37.108Z,1.39
2017-11-30T00:28:43.528Z,1.39
2017-11-30T00:29:49.252Z,1.41
2017-11-30T00:30:55.310Z,1.40
2017-11-30T00:32:01.464Z,1.40
2017-11-30T00:33:07.437Z,1.44
2017-11-30T00:34:13.536Z,1.45
2017-11-30T00:35:19.748Z,1.45
2017-11-30T00:36:25.719Z,1.46
2017-11-30T00:37:31.837Z,1.46
2017-11-30T00:38:37.785Z,1.46
2017-11-30T00:39:43.835Z,1.47
2017-11-30T00:40:49.992Z,1.47
2017-11-30T00:41:55.964Z,1.49
2017-11-30T00:43:02.041Z,1.50
2017-11-30T00:44:08.122Z,1.50
2017-11-30T00:45:14.175Z,1.49
2017-11-30T00:46:20.223Z,1.49
2017-11-30T00:47:26.296Z,1.50
2017-11-30T00:48:32.400Z,1.52
2017-11-30T00:49:38.579Z,1.52
2017-11-30T00:50:44.498Z,1.51
2017-11-30T00:51:50.582Z,1.47
2017-11-30T00:52:56.629Z,1.45
2017-11-30T00:54:02.832Z,1.44
2017-11-30T00:55:08.795Z,1.41
2017-11-30T00:56:14.901Z,1.39
2017-11-30T00:57:20.897Z,1.39
2017-11-30T00:58:27.001Z,1.39
2017-11-30T00:59:33.084Z,1.39
2017-11-30T01:00:39.274Z,1.40
2017-11-30T01:01:45.178Z,1.44
2017-11-30T01:02:51.248Z,1.46
2017-11-30T01:03:57.345Z,1.47
2017-11-30T01:05:03.367Z,1.47
2017-11-30T01:06:09.454Z,1.50
2017-11-30T01:07:15.510Z,1.49
2017-11-30T01:08:21.569Z,1.49
2017-11-30T01:09:27.660Z,1.49
2017-11-30T01:10:33.739Z,1.51
2017-11-30T01:11:39.765Z,1.50
2017-11-30T01:12:45.841Z,1.49
2017-11-30T01:13:52.245Z,1.50
2017-11-30T01:14:58.977Z,1.52
2017-11-30T01:16:04.087Z,1.51
2017-11-30T01:17:10.136Z,1.51
2017-11-30T01:18:16.290Z,1.50
2017-11-30T01:19:22.261Z,1.49
2017-11-30T01:20:28.457Z,1.47
2017-11-30T01:21:34.444Z,1.47
2017-11-30T01:22:40.466Z,1.48
2017-11-30T01:23:46.560Z,1.47
2017-11-30T01:24:52.581Z,1.48
2017-11-30T01:25:58.730Z,1.47
2017-11-30T01:27:04.778Z,1.48
2017-11-30T01:28:10.976Z,1.46
2017-11-30T01:29:17.131Z,1.47
2017-11-30T01:30:22.931Z,1.46
2017-11-30T01:31:29.148Z,1.48
2017-11-30T01:32:35.199Z,1.50
2017-11-30T01:33:41.153Z,1.49
2017-11-30T01:34:47.231Z,1.51
2017-11-30T01:35:53.347Z,1.51
2017-11-30T01:36:59.326Z,1.51
2017-11-30T01:38:05.408Z,1.51
2017-11-30T01:39:11.535Z,1.50
2017-11-30T01:40:17.528Z,1.49
2017-11-30T01:41:23.691Z,1.49
2017-11-30T01:42:29.769Z,1.48
2017-11-30T01:43:36.405Z,1.46
2017-11-30T01:44:41.847Z,1.47
2017-11-30T01:45:47.881Z,1.44
2017-11-30T01:46:53.999Z,1.39
2017-11-30T01:48:00.025Z,1.39
2017-11-30T01:49:06.114Z,1.38
2017-11-30T01:50:12.176Z,1.35
2017-11-30T01:51:18.265Z,1.32
2017-11-30T01:52:24.344Z,1.27
2017-11-30T01:53:30.375Z,1.24
2017-11-30T01:54:36.822Z,1.19
2017-11-30T01:55:42.561Z,1.13
2017-11-30T01:56:48.571Z,1.11
2017-11-30T01:57:54.624Z,1.10
2017-11-30T01:59:00.733Z,1.05
2017-11-30T02:00:06.929Z,1.02
2017-11-30T02:01:12.904Z,0.97
2017-11-30T02:02:18.955Z,0.86
2017-11-30T02:03:25.006Z,0.71
2017-11-30T02:04:31.038Z,0.61
2017-11-30T02:05:37.068Z,0.52
2017-11-30T02:06:43.225Z,0.50
2017-11-30T02:07:49.360Z,0.52
2017-11-30T02:08:55.607Z,0.64
2017-11-30T02:10:01.475Z,0.72
2017-11-30T02:11:07.863Z,0.87
2017-11-30T02:12:13.502Z,0.98
2017-11-30T02:13:19.551Z,1.02
2017-11-30T02:14:25.564Z,1.05
2017-11-30T02:15:31.604Z,1.08
2017-11-30T02:16:37.695Z,1.13
2017-11-30T02:17:43.727Z,1.16
2017-11-30T02:18:49.864Z,1.22
2017-11-30T02:19:56.031Z,1.26
2017-11-30T02:21:01.892Z,1.28
2017-11-30T02:22:08.043Z,1.30
2017-11-30T02:23:14.161Z,1.29
2017-11-30T02:24:22.097Z,1.32
2017-11-30T02:25:26.185Z,1.30
2017-11-30T02:26:32.200Z,1.30
2017-11-30T02:27:38.249Z,1.25
2017-11-30T02:28:44.303Z,1.20
2017-11-30T02:29:50.379Z,1.20
2017-11-30T02:30:56.636Z,1.25
2017-11-30T02:32:02.594Z,1.26
2017-11-30T02:33:08.628Z,1.28
2017-11-30T02:34:14.643Z,1.30
2017-11-30T02:35:21.237Z,1.29
2017-11-30T02:36:26.779Z,1.29
2017-11-30T02:37:32.833Z,1.27
2017-11-30T02:38:38.879Z,1.22
2017-11-30T02:39:44.961Z,1.13
2017-11-30T02:40:51.088Z,1.07
2017-11-30T02:41:57.056Z,1.00
2017-11-30T02:43:03.154Z,0.94
2017-11-30T02:44:09.204Z,0.85
2017-11-30T02:45:16.807Z,0.75
2017-11-30T02:46:21.398Z,0.64
2017-11-30T02:47:27.374Z,0.57
2017-11-30T02:48:33.515Z,0.54
2017-11-30T02:49:39.500Z,0.54
2017-11-30T02:50:45.538Z,0.57
2017-11-30T02:51:51.675Z,0.56
2017-11-30T02:52:57.674Z,0.54
2017-11-30T02:54:03.745Z,0.54
2017-11-30T02:55:09.759Z,0.60
2017-11-30T02:56:15.820Z,0.65
2017-11-30T02:57:21.984Z,0.69
2017-11-30T02:58:27.949Z,0.72
2017-11-30T02:59:34.004Z,0.80
2017-11-30T03:00:40.052Z,0.83
2017-11-30T03:01:46.106Z,0.87
2017-11-30T03:02:52.358Z,0.87
2017-11-30T03:03:58.207Z,0.85
2017-11-30T03:05:04.279Z,0.87
2017-11-30T03:06:10.399Z,0.88
2017-11-30T03:07:16.444Z,0.89
2017-11-30T03:08:22.430Z,0.87
2017-11-30T03:09:28.494Z,0.87
2017-11-30T03:10:34.605Z,0.82
2017-11-30T03:11:40.582Z,0.74
2017-11-30T03:12:46.633Z,0.73
2017-11-30T03:13:52.713Z,0.68
2017-11-30T03:14:58.763Z,0.61
2017-11-30T03:16:04.911Z,0.52
2017-11-30T03:17:10.852Z,0.50
2017-11-30T03:18:16.934Z,0.47
2017-11-30T03:19:23.049Z,0.42
2017-11-30T03:20:29.014Z,0.45
2017-11-30T03:21:35.067Z,0.49
2017-11-30T03:22:41.112Z,0.48
2017-11-30T03:23:47.181Z,0.51
2017-11-30T03:24:53.270Z,0.52
2017-11-30T03:25:59.281Z,0.50
2017-11-30T03:27:05.314Z,0.46
2017-11-30T03:28:11.961Z,0.47
2017-11-30T03:29:17.657Z,0.51
2017-11-30T03:30:23.482Z,0.57
2017-11-30T03:31:29.525Z,0.65
2017-11-30T03:32:35.670Z,0.69
2017-11-30T03:33:41.633Z,0.76
2017-11-30T03:34:47.700Z,0.80
2017-11-30T03:35:53.781Z,0.85
2017-11-30T03:36:59.781Z,0.90
2017-11-30T03:38:06.017Z,0.94
2017-11-30T03:39:12.023Z,0.93
2017-11-30T03:40:18.182Z,0.95
2017-11-30T03:41:24.015Z,0.95
2017-11-30T03:42:30.059Z,0.98
2017-11-30T03:43:36.160Z,0.99
2017-11-30T03:44:42.185Z,1.00
2017-11-30T03:45:48.260Z,1.01
2017-11-30T03:46:54.382Z,1.02
2017-11-30T03:48:00.359Z,1.04
2017-11-30T03:49:06.481Z,1.07
2017-11-30T03:50:12.492Z,1.05
2017-11-30T03:51:18.605Z,1.04
2017-11-30T03:52:24.573Z,1.07
2017-11-30T03:53:30.628Z,1.04
2017-11-30T03:54:36.702Z,1.02
2017-11-30T03:55:42.757Z,1.00
2017-11-30T03:56:48.826Z,0.99
2017-11-30T03:57:54.858Z,0.93
2017-11-30T03:59:00.945Z,0.88
2017-11-30T04:00:07.022Z,0.83
2017-11-30T04:01:13.249Z,0.77
2017-11-30T04:02:19.269Z,0.71
2017-11-30T04:03:25.245Z,0.67
2017-11-30T04:04:31.730Z,0.64
2017-11-30T04:05:37.256Z,0.57
2017-11-30T04:06:43.341Z,0.47
2017-11-30T04:07:49.445Z,0.38
2017-11-30T04:08:56.425Z,0.31
2017-11-30T04:10:01.485Z,0.32
2017-11-30T04:11:07.517Z,0.36
2017-11-30T04:12:13.577Z,0.41
2017-11-30T04:13:19.625Z,0.43
2017-11-30T04:14:25.914Z,0.40
2017-11-30T04:15:31.786Z,0.35
2017-11-30T04:16:37.753Z,0.40
2017-11-30T04:17:43.807Z,0.43
2017-11-30T04:18:49.841Z,0.47
2017-11-30T04:19:55.914Z,0.57
2017-11-30T04:21:01.946Z,0.62
2017-11-30T04:22:07.981Z,0.65
2017-11-30T04:23:14.148Z,0.71
2017-11-30T04:24:20.085Z,0.76
2017-11-30T04:25:26.133Z,0.81
2017-11-30T04:26:32.170Z,0.84
2017-11-30T04:27:38.222Z,0.85
2017-11-30T04:28:44.268Z,0.85
2017-11-30T04:29:50.326Z,0.83
2017-11-30T04:30:56.358Z,0.80
2017-11-30T04:32:02.408Z,0.75
2017-11-30T04:33:08.462Z,0.69
2017-11-30T04:34:14.617Z,0.64
2017-11-30T04:35:20.583Z,0.58
2017-11-30T04:36:26.612Z,0.56
2017-11-30T04:37:32.660Z,0.51
2017-11-30T04:38:38.711Z,0.51
2017-11-30T04:39:44.768Z,0.51
2017-11-30T04:40:50.811Z,0.50
2017-11-30T04:41:57.025Z,0.48
2017-11-30T04:43:03.019Z,0.46
2017-11-30T04:44:09.046Z,0.48
2017-11-30T04:45:15.022Z,0.50
2017-11-30T04:46:21.058Z,0.56
2017-11-30T04:47:27.200Z,0.60
2017-11-30T04:48:33.317Z,0.60
2017-11-30T04:49:39.551Z,0.58
2017-11-30T04:50:45.242Z,0.58
2017-11-30T04:51:51.314Z,0.58
2017-11-30T04:52:57.353Z,0.58
2017-11-30T04:54:03.402Z,0.62
2017-11-30T04:55:09.555Z,0.70
2017-11-30T04:56:15.495Z,0.74
2017-11-30T04:57:21.635Z,0.79
2017-11-30T04:58:27.596Z,0.80
2017-11-30T04:59:33.661Z,0.84
2017-11-30T05:00:39.682Z,0.65492
2017-11-30T05:01:45.831Z,0.90
2017-11-30T05:02:51.802Z,0.94
2017-11-30T05:03:57.926Z,0.96
2017-11-30T05:05:03.908Z,0.97
2017-11-30T05:06:10.026Z,0.97
2017-11-30T05:07:16.008Z,1.00
2017-11-30T05:08:22.135Z,1.03
2017-11-30T05:09:28.246Z,1.07
2017-11-30T05:10:34.162Z,1.11
2017-11-30T05:11:41.205Z,1.09
2017-11-30T05:12:46.274Z,1.10
2017-11-30T05:13:52.313Z,1.10
2017-11-30T05:14:58.596Z,1.09
2017-11-30T05:16:04.977Z,1.11
2017-11-30T05:17:10.472Z,1.11
2017-11-30T05:18:16.537Z,1.10
2017-11-30T05:19:22.866Z,1.12
2017-11-30T05:20:28.923Z,1.10
2017-11-30T05:21:34.716Z,1.09
2017-11-30T05:22:40.861Z,1.09
2017-11-30T05:23:46.871Z,1.10
2017-11-30T05:24:53.138Z,1.11
2017-11-30T05:25:58.916Z,1.12
2017-11-30T05:27:05.567Z,1.14
2017-11-30T05:28:11.053Z,1.19
2017-11-30T05:29:17.155Z,1.20
2017-11-30T05:30:23.383Z,1.19
2017-11-30T05:31:29.328Z,1.23
2017-11-30T05:32:35.256Z,1.23
2017-11-30T05:33:41.424Z,1.24
2017-11-30T05:34:47.395Z,1.23
2017-11-30T05:35:53.521Z,1.23
2017-11-30T05:36:59.680Z,1.21
2017-11-30T05:38:05.545Z,1.22
2017-11-30T05:39:11.770Z,1.22
2017-11-30T05:40:17.999Z,1.21
2017-11-30T05:41:23.791Z,1.20
2017-11-30T05:42:29.797Z,1.20
2017-11-30T05:43:35.853Z,1.20
2017-11-30T05:44:42.037Z,1.20
2017-11-30T05:45:47.989Z,1.19
2017-11-30T05:46:54.046Z,1.16
2017-11-30T05:48:00.098Z,1.20
2017-11-30T05:49:06.311Z,1.19
2017-11-30T05:50:12.244Z,1.19
2017-11-30T05:51:18.332Z,1.19
2017-11-30T05:52:24.341Z,1.16
2017-11-30T05:53:30.509Z,1.14
2017-11-30T05:54:36.994Z,1.13
2017-11-30T05:55:42.894Z,1.11
2017-11-30T05:56:48.681Z,1.09
2017-11-30T05:57:55.238Z,1.10
2017-11-30T05:59:00.857Z,1.10
2017-11-30T06:00:06.839Z,1.11
2017-11-30T06:01:12.840Z,1.10
2017-11-30T06:02:18.899Z,1.10
2017-11-30T06:03:24.990Z,1.11
2017-11-30T06:04:31.124Z,1.09
2017-11-30T06:05:37.428Z,1.08
2017-11-30T06:06:43.156Z,1.04
2017-11-30T06:07:49.344Z,1.03
2017-11-30T06:08:55.276Z,1.03
2017-11-30T06:10:01.355Z,1.07
2017-11-30T06:11:07.497Z,1.09
2017-11-30T06:12:13.471Z,1.07
2017-11-30T06:13:19.527Z,1.04
2017-11-30T06:14:26.176Z,1.01
2017-11-30T06:15:31.965Z,0.99
2017-11-30T06:16:37.715Z,0.99
2017-11-30T06:17:43.770Z,0.96
2017-11-30T06:18:49.829Z,0.96
2017-11-30T06:19:55.910Z,0.99
2017-11-30T06:21:02.109Z,1.02
2017-11-30T06:22:08.013Z,1.03
2017-11-30T06:23:14.069Z,1.07
2017-11-30T06:24:20.132Z,1.08
2017-11-30T06:25:26.854Z,1.09
2017-11-30T06:26:32.694Z,1.10
2017-11-30T06:27:38.351Z,1.13
2017-11-30T06:28:44.363Z,1.13
2017-11-30T06:29:50.524Z,1.13
2017-11-30T06:30:56.498Z,1.13
2017-11-30T06:32:02.615Z,1.13
2017-11-30T06:33:08.709Z,1.13
2017-11-30T06:34:15.673Z,1.13
2017-11-30T06:35:20.770Z,1.17
2017-11-30T06:36:26.780Z,1.21
2017-11-30T06:37:32.856Z,1.22
2017-11-30T06:38:38.958Z,1.20
2017-11-30T06:39:45.070Z,1.17
2017-11-30T06:40:51.043Z,1.12
2017-11-30T06:41:57.105Z,1.09
2017-11-30T06:43:03.250Z,1.05
2017-11-30T06:44:09.365Z,1.03
2017-11-30T06:45:15.286Z,1.00
2017-11-30T06:46:21.460Z,0.99
2017-11-30T06:47:27.439Z,0.98
2017-11-30T06:48:33.447Z,0.99
2017-11-30T06:49:39.495Z,0.94
2017-11-30T06:50:45.612Z,0.91
2017-11-30T06:51:51.614Z,0.87
2017-11-30T06:52:57.679Z,0.87
2017-11-30T06:54:03.733Z,0.83
2017-11-30T06:55:09.816Z,0.81
2017-11-30T06:56:15.929Z,0.77
2017-11-30T06:57:21.940Z,0.77
2017-11-30T06:58:28.028Z,0.75
2017-11-30T06:59:34.032Z,0.71
2017-11-30T07:00:40.190Z,0.70
2017-11-30T07:01:46.244Z,0.66
2017-11-30T07:02:52.181Z,0.52
2017-11-30T07:03:58.337Z,0.47
2017-11-30T07:05:04.348Z,0.33
2017-11-30T07:06:10.360Z,0.18
2017-11-30T07:07:16.386Z,0.01
2017-11-30T07:08:22.425Z,0.65523
2017-11-30T07:09:28.476Z,0.65522
2017-11-30T07:10:34.550Z,0.65513
2017-11-30T07:11:40.692Z,0.65502
2017-11-30T07:12:46.619Z,0.65495
2017-11-30T07:13:52.670Z,0.65491
2017-11-30T07:14:58.711Z,0.65493
2017-11-30T07:16:04.817Z,0.65496
2017-11-30T07:17:10.821Z,0.65494
2017-11-30T07:18:16.901Z,0.65487
2017-11-30T07:19:22.880Z,0.65481
2017-11-30T07:20:28.940Z,0.65479
2017-11-30T07:21:35.042Z,0.65478
2017-11-30T07:22:41.676Z,0.65473
2017-11-30T07:23:47.042Z,0.65467
2017-11-30T07:24:53.107Z,0.65459
2017-11-30T07:25:59.125Z,0.65452
2017-11-30T07:27:05.142Z,0.65450
2017-11-30T07:28:11.248Z,0.65464
2017-11-30T07:29:17.287Z,0.65471
2017-11-30T07:30:23.587Z,0.65468
2017-11-30T07:31:29.281Z,0.65469
2017-11-30T07:32:35.406Z,0.65466
2017-11-30T07:33:41.454Z,0.65478
2017-11-30T07:34:47.398Z,0.65478
2017-11-30T07:35:53.560Z,0.65479
2017-11-30T07:36:59.439Z,0.65473
2017-11-30T07:38:05.644Z,0.65472
2017-11-30T07:39:11.521Z,0.65473
2017-11-30T07:40:17.757Z,0.65471
2017-11-30T07:41:23.570Z,0.65478
2017-11-30T07:42:29.616Z,0.65481
2017-11-30T07:43:35.632Z,0.65479
2017-11-30T07:44:41.774Z,0.65481
2017-11-30T07:45:47.829Z,0.65480
2017-11-30T07:46:53.756Z,0.65487
2017-11-30T07:47:59.811Z,0.65493
2017-11-30T07:49:05.850Z,0.65499
2017-11-30T07:50:11.836Z,0.65508
2017-11-30T07:51:17.890Z,0.65509
2017-11-30T07:52:23.910Z,0.65509
2017-11-30T07:53:30.225Z,0.65533
2017-11-30T07:54:36.017Z,0.10
2017-11-30T07:55:42.043Z,0.17
2017-11-30T07:56:48.061Z,0.18
2017-11-30T07:57:54.098Z,0.21
2017-11-30T07:59:00.270Z,0.24
2017-11-30T08:00:06.248Z,0.25
2017-11-30T08:01:12.238Z,0.29
2017-11-30T08:02:18.259Z,0.29
2017-11-30T08:03:24.465Z,0.29
2017-11-30T08:04:30.543Z,0.33
2017-11-30T08:05:36.401Z,0.38
2017-11-30T08:06:42.449Z,0.43
2017-11-30T08:07:49.808Z,0.49
2017-11-30T08:08:54.638Z,0.54
2017-11-30T08:10:00.595Z,0.63
2017-11-30T08:11:06.659Z,0.68
2017-11-30T08:12:12.696Z,0.73
2017-11-30T08:13:18.939Z,0.78
2017-11-30T08:14:24.820Z,0.83
2017-11-30T08:15:30.853Z,0.90
2017-11-30T08:16:36.978Z,0.98
2017-11-30T08:17:42.976Z,1.04
2017-11-30T08:18:49.028Z,1.08
2017-11-30T08:19:55.154Z,1.11
2017-11-30T08:21:01.245Z,1.13
2017-11-30T08:22:07.323Z,1.14
2017-11-30T08:23:13.375Z,1.15
2017-11-30T08:24:19.372Z,1.17
2017-11-30T08:25:25.654Z,1.19
2017-11-30T08:26:31.528Z,1.19
2017-11-30T08:27:37.572Z,1.23
2017-11-30T08:28:43.723Z,1.24
2017-11-30T08:29:49.735Z,1.26
2017-11-30T08:30:55.815Z,1.32
2017-11-30T08:32:01.867Z,1.34
2017-11-30T08:33:08.431Z,1.37
2017-11-30T08:34:14.009Z,1.39
2017-11-30T08:35:20.112Z,1.42
2017-11-30T08:36:26.164Z,1.41
2017-11-30T08:37:32.238Z,1.42
2017-11-30T08:38:38.328Z,1.44
2017-11-30T08:39:44.424Z,1.44
2017-11-30T08:40:50.861Z,1.44
2017-11-30T08:41:56.537Z,1.44
2017-11-30T08:43:02.621Z,1.47
2017-11-30T08:44:08.785Z,1.51
2017-11-30T08:45:14.828Z,1.53
2017-11-30T08:46:20.861Z,1.57
2017-11-30T08:47:26.984Z,1.60
2017-11-30T08:48:33.028Z,1.63
2017-11-30T08:49:39.243Z,1.66
2017-11-30T08:50:45.238Z,1.69
2017-11-30T08:51:51.289Z,1.71
2017-11-30T08:52:57.364Z,1.75
2017-11-30T08:54:03.561Z,1.75
2017-11-30T08:55:09.542Z,1.75
2017-11-30T08:56:15.911Z,1.71
2017-11-30T08:57:21.722Z,1.63
2017-11-30T08:58:27.806Z,1.54
2017-11-30T08:59:34.405Z,1.42
2017-11-30T09:00:40.003Z,1.28
2017-11-30T09:01:46.072Z,1.15
2017-11-30T09:02:52.155Z,1.07
2017-11-30T09:03:58.253Z,1.00
2017-11-30T09:05:04.333Z,0.99
2017-11-30T09:06:10.429Z,0.99
2017-11-30T09:07:16.557Z,1.05
2017-11-30T09:08:22.572Z,1.19
2017-11-30T09:09:28.728Z,1.29
2017-11-30T09:10:34.730Z,1.41
2017-11-30T09:11:40.872Z,1.52
2017-11-30T09:12:46.976Z,1.61
2017-11-30T09:13:52.973Z,1.71
2017-11-30T09:14:59.131Z,1.84
2017-11-30T09:16:05.268Z,1.95
2017-11-30T09:17:11.233Z,2.02
2017-11-30T09:18:17.350Z,2.11
2017-11-30T09:19:23.411Z,2.17
2017-11-30T09:20:29.548Z,2.22
2017-11-30T09:21:35.626Z,2.25
2017-11-30T09:22:41.716Z,2.27
2017-11-30T09:23:47.805Z,2.26
2017-11-30T09:24:53.949Z,2.25
2017-11-30T09:26:00.000Z,2.24
2017-11-30T09:27:06.587Z,2.22
2017-11-30T09:28:12.156Z,2.22
2017-11-30T09:29:18.429Z,2.25
2017-11-30T09:30:24.346Z,2.26
2017-11-30T09:31:30.475Z,2.30
2017-11-30T09:32:36.559Z,2.36
2017-11-30T09:33:42.646Z,2.44
2017-11-30T09:34:48.740Z,2.47
2017-11-30T09:35:54.848Z,2.51
2017-11-30T09:37:01.269Z,2.59
2017-11-30T09:38:07.046Z,2.69
2017-11-30T09:39:13.346Z,2.76
2017-11-30T09:40:19.423Z,2.81
2017-11-30T09:41:25.357Z,2.90
2017-11-30T09:42:32.318Z,3.00
2017-11-30T09:43:37.580Z,3.05
2017-11-30T09:44:43.699Z,3.15
2017-11-30T09:45:49.900Z,3.28
2017-11-30T09:46:56.787Z,3.38
2017-11-30T09:48:02.549Z,3.44
2017-11-30T09:49:08.838Z,3.43
2017-11-30T09:50:14.821Z,3.42
2017-11-30T09:51:20.452Z,3.35
2017-11-30T09:52:26.565Z,3.26
2017-11-30T09:53:32.828Z,3.24
2017-11-30T09:54:39.319Z,3.26
2017-11-30T09:55:45.028Z,3.34
2017-11-30T09:56:51.635Z,3.46
2017-11-30T09:57:57.158Z,3.50
2017-11-30T09:59:03.270Z,3.54
2017-11-30T10:00:10.040Z,3.60
2017-11-30T10:01:15.608Z,3.72
2017-11-30T10:02:21.774Z,3.80
2017-11-30T10:03:27.789Z,3.92
2017-11-30T10:04:34.032Z,3.96
2017-11-30T10:05:40.092Z,3.94
2017-11-30T10:06:46.291Z,3.95
2017-11-30T10:07:52.996Z,3.92
2017-11-30T10:08:58.562Z,3.89
2017-11-30T10:10:04.614Z,3.80
2017-11-30T10:11:10.836Z,3.74
2017-11-30T10:12:17.213Z,3.71
2017-11-30T10:13:23.138Z,3.72
2017-11-30T10:14:29.141Z,3.79
2017-11-30T10:15:35.443Z,3.94
2017-11-30T10:16:42.010Z,4.11
2017-11-30T10:17:47.565Z,4.21
2017-11-30T10:18:53.685Z,4.30
2017-11-30T10:19:59.828Z,4.44
2017-11-30T10:21:06.094Z,4.61
2017-11-30T10:22:12.170Z,4.69
2017-11-30T10:23:18.580Z,4.75
2017-11-30T10:24:24.474Z,4.77
2017-11-30T10:25:30.635Z,4.77
2017-11-30T10:26:36.775Z,4.73
2017-11-30T10:27:43.383Z,4.59
2017-11-30T10:28:49.767Z,4.48
2017-11-30T10:29:55.245Z,4.38
2017-11-30T10:31:02.006Z,4.36
2017-11-30T10:32:07.708Z,4.42
2017-11-30T10:33:14.637Z,4.46
2017-11-30T10:34:20.453Z,4.46
2017-11-30T10:35:26.676Z,4.38
2017-11-30T10:36:32.205Z,4.40
2017-11-30T10:37:38.340Z,4.34
2017-11-30T10:38:44.839Z,4.34
2017-11-30T10:39:50.653Z,4.32
2017-11-30T10:40:56.843Z,4.28
2017-11-30T10:42:02.958Z,4.32
2017-11-30T10:43:09.471Z,4.30
2017-11-30T10:44:15.300Z,4.28
2017-11-30T10:45:21.451Z,4.26
2017-11-30T10:46:27.561Z,4.25
2017-11-30T10:47:33.737Z,4.21
2017-11-30T10:48:39.878Z,4.21
2017-11-30T10:49:46.640Z,4.17
2017-11-30T10:50:52.718Z,4.11
2017-11-30T10:51:58.868Z,4.15
2017-11-30T10:53:04.493Z,4.28
2017-11-30T10:54:10.598Z,4.42
2017-11-30T10:55:17.395Z,4.48
2017-11-30T10:56:23.475Z,4.61
2017-11-30T10:57:29.700Z,4.61
2017-11-30T10:58:35.453Z,4.65
2017-11-30T10:59:41.376Z,4.71
2017-11-30T11:00:47.517Z,4.73
2017-11-30T11:01:53.715Z,4.76
2017-11-30T11:03:00.383Z,4.78
2017-11-30T11:04:06.028Z,4.82
2017-11-30T11:05:12.182Z,4.88
2017-11-30T11:06:18.530Z,4.90
2017-11-30T11:07:24.497Z,4.86
2017-11-30T11:08:30.756Z,4.82
2017-11-30T11:09:37.390Z,4.77
2017-11-30T11:10:43.101Z,4.75
2017-11-30T11:11:49.252Z,4.63
2017-11-30T11:12:55.406Z,4.52
2017-11-30T11:14:01.943Z,4.36
2017-11-30T11:15:08.220Z,4.13
2017-11-30T11:16:14.301Z,3.93
2017-11-30T11:17:19.883Z,3.76
2017-11-30T11:18:26.032Z,3.59
2017-11-30T11:19:32.202Z,3.51
2017-11-30T11:20:38.369Z,3.40
2017-11-30T11:21:44.615Z,3.34
2017-11-30T11:22:50.702Z,3.29
2017-11-30T11:23:56.946Z,3.28
2017-11-30T11:25:02.947Z,3.29
2017-11-30T11:26:09.111Z,3.28
2017-11-30T11:27:15.379Z,3.26
2017-11-30T11:28:21.437Z,3.26
2017-11-30T11:29:27.629Z,3.28
2017-11-30T11:30:34.438Z,3.35
2017-11-30T11:31:40.006Z,3.52
2017-11-30T11:32:46.162Z,3.64
2017-11-30T11:33:52.318Z,3.64
2017-11-30T11:34:58.502Z,3.68
2017-11-30T11:36:04.621Z,3.74
2017-11-30T11:37:10.796Z,3.90
2017-11-30T11:38:16.953Z,4.11
2017-11-30T11:39:23.860Z,4.30
2017-11-30T11:40:29.319Z,4.42
2017-11-30T11:41:35.539Z,4.48
2017-11-30T11:42:41.632Z,4.55
2017-11-30T11:43:47.797Z,4.65
2017-11-30T11:44:54.905Z,4.80
2017-11-30T11:46:00.137Z,4.98
2017-11-30T11:47:06.910Z,5.11
2017-11-30T11:48:12.509Z,5.19
2017-11-30T11:49:18.678Z,5.15
2017-11-30T11:50:24.901Z,5.11
2017-11-30T11:51:31.314Z,5.01
2017-11-30T11:52:37.361Z,4.94
2017-11-30T11:53:43.953Z,4.84
2017-11-30T11:54:49.770Z,4.73
2017-11-30T11:55:55.840Z,4.63
2017-11-30T11:57:01.919Z,4.57
2017-11-30T11:58:08.675Z,4.53
2017-11-30T11:59:14.264Z,4.48
2017-11-30T12:00:20.974Z,4.46
2017-11-30T12:01:26.575Z,4.46
2017-11-30T12:02:33.265Z,4.44
2017-11-30T12:03:38.877Z,4.42
2017-11-30T12:04:45.069Z,4.46
2017-11-30T12:05:51.234Z,4.50
2017-11-30T12:06:57.868Z,4.53
2017-11-30T12:08:04.005Z,4.57
2017-11-30T12:09:09.672Z,4.59
2017-11-30T12:10:16.678Z,4.63
2017-11-30T12:11:21.995Z,4.63
2017-11-30T12:12:28.155Z,4.63
2017-11-30T12:13:34.374Z,4.63
2017-11-30T12:14:41.105Z,4.65
2017-11-30T12:15:46.983Z,4.67
2017-11-30T12:16:52.892Z,4.67
2017-11-30T12:17:59.487Z,4.65
2017-11-30T12:19:05.127Z,4.61
2017-11-30T12:20:11.287Z,4.65
2017-11-30T12:21:17.883Z,4.65
2017-11-30T12:22:23.674Z,4.65
2017-11-30T12:23:30.340Z,4.57
2017-11-30T12:24:35.982Z,4.53
2017-11-30T12:25:42.150Z,4.46
2017-11-30T12:26:48.231Z,4.44
2017-11-30T12:27:54.432Z,4.44
2017-11-30T12:29:00.660Z,4.44
2017-11-30T12:30:06.818Z,4.51
2017-11-30T12:31:12.915Z,4.55
2017-11-30T12:32:19.045Z,4.59
2017-11-30T12:33:25.361Z,4.61
2017-11-30T12:34:31.402Z,4.61
2017-11-30T12:35:37.502Z,4.55
2017-11-30T12:36:43.630Z,4.46
2017-11-30T12:37:49.781Z,4.38
2017-11-30T12:38:56.460Z,4.36
2017-11-30T12:40:02.053Z,4.36
2017-11-30T12:41:08.228Z,4.34
2017-11-30T12:42:14.355Z,4.30
2017-11-30T12:43:20.504Z,4.21
2017-11-30T12:44:27.214Z,4.19
2017-11-30T12:45:32.814Z,4.17
2017-11-30T12:46:39.473Z,4.11
2017-11-30T12:47:45.154Z,4.07
2017-11-30T12:48:51.898Z,4.05
2017-11-30T12:49:57.390Z,4.00
2017-11-30T12:51:03.606Z,3.97
2017-11-30T12:52:09.659Z,3.91
2017-11-30T12:53:16.328Z,3.84
2017-11-30T12:54:21.922Z,3.81
2017-11-30T12:55:28.627Z,3.78
2017-11-30T12:56:34.279Z,3.74
2017-11-30T12:57:40.506Z,3.70
2017-11-30T12:58:47.015Z,3.64
2017-11-30T12:59:52.584Z,3.58
2017-11-30T13:00:59.357Z,3.58
2017-11-30T13:02:05.014Z,3.58
2017-11-30T13:03:11.000Z,3.57
2017-11-30T13:04:17.224Z,3.53
2017-11-30T13:05:23.239Z,3.53
2017-11-30T13:06:29.954Z,3.52
2017-11-30T13:07:35.638Z,3.56
2017-11-30T13:08:41.724Z,3.58
2017-11-30T13:09:47.937Z,3.61
2017-11-30T13:10:53.937Z,3.66
2017-11-30T13:12:00.839Z,3.64
2017-11-30T13:13:06.838Z,3.65
2017-11-30T13:14:12.442Z,3.67
2017-11-30T13:15:18.614Z,3.70
2017-11-30T13:16:24.547Z,3.72
2017-11-30T13:17:31.238Z,3.69
2017-11-30T13:18:36.813Z,3.70
2017-11-30T13:19:42.960Z,3.69
2017-11-30T13:20:49.075Z,3.69
2017-11-30T13:21:55.335Z,3.68
2017-11-30T13:23:01.567Z,3.66
2017-11-30T13:24:07.550Z,3.66
2017-11-30T13:25:13.749Z,3.66
2017-11-30T13:26:20.340Z,3.65
2017-11-30T13:27:25.944Z,3.68
2017-11-30T13:28:32.569Z,3.70
2017-11-30T13:29:38.774Z,3.71
2017-11-30T13:30:44.413Z,3.71
2017-11-30T13:31:50.763Z,3.70
2017-11-30T13:32:56.838Z,3.72
2017-11-30T13:34:02.858Z,3.71
2017-11-30T13:35:08.846Z,3.71
2017-11-30T13:36:14.988Z,3.71
2017-11-30T13:37:21.177Z,3.74
2017-11-30T13:38:27.734Z,3.78
2017-11-30T13:39:33.530Z,3.79
2017-11-30T13:40:40.123Z,3.81
2017-11-30T13:41:45.642Z,3.83
2017-11-30T13:42:52.044Z,3.86
2017-11-30T13:43:58.461Z,3.89
2017-11-30T13:45:04.095Z,3.91
2017-11-30T13:46:10.696Z,3.94
2017-11-30T13:47:16.478Z,3.94
2017-11-30T13:48:22.478Z,3.98
2017-11-30T13:49:28.597Z,4.01
2017-11-30T13:50:34.750Z,4.01
2017-11-30T13:51:40.902Z,4.00
2017-11-30T13:52:47.053Z,4.00
2017-11-30T13:53:53.160Z,4.01
2017-11-30T13:54:59.347Z,4.01
2017-11-30T13:56:05.473Z,4.01
2017-11-30T13:57:11.597Z,4.01
2017-11-30T13:58:17.752Z,3.98
2017-11-30T13:59:24.369Z,3.97
2017-11-30T14:00:30.179Z,3.94
2017-11-30T14:01:36.155Z,3.93
2017-11-30T14:02:42.890Z,3.93
2017-11-30T14:03:49.153Z,3.93
2017-11-30T14:04:54.560Z,3.90
2017-11-30T14:06:01.579Z,3.89
2017-11-30T14:07:06.917Z,3.91
2017-11-30T14:08:12.994Z,3.91
2017-11-30T14:09:19.223Z,3.91
2017-11-30T14:10:25.338Z,3.90
2017-11-30T14:11:31.392Z,3.89
2017-11-30T14:12:37.638Z,3.89
2017-11-30T14:13:43.692Z,3.89
2017-11-30T14:14:50.380Z,3.88
2017-11-30T14:15:56.021Z,3.85
2017-11-30T14:17:02.071Z,3.82
2017-11-30T14:18:08.768Z,3.81
2017-11-30T14:19:14.380Z,3.81
2017-11-30T14:20:20.468Z,3.78
2017-11-30T14:21:26.674Z,3.78
2017-11-30T14:22:32.822Z,3.78
2017-11-30T14:23:38.905Z,3.77
2017-11-30T14:24:45.025Z,3.79
2017-11-30T14:25:51.180Z,3.79
2017-11-30T14:26:57.272Z,3.79
2017-11-30T14:28:03.477Z,3.78
2017-11-30T14:29:10.155Z,3.76
2017-11-30T14:30:15.665Z,3.74
2017-11-30T14:31:22.342Z,3.69
2017-11-30T14:32:28.577Z,3.63
2017-11-30T14:33:34.093Z,3.56
2017-11-30T14:34:40.723Z,3.52